AirNav   Everest Fuels
 
 680 users online  

01TX Ox Ranch Airport
Uvalde, Texas, USA

GOING TO UVALDE?


FAA INFORMATION EFFECTIVE 21 MAY 2020

Location

FAA Identifier: 01TX
Lat/Long: 29-27-41.3200N 100-06-51.4600W
29-27.688667N 100-06.857667W
29.4614778,-100.1142944
(estimated)
Elevation: 1293 ft. / 394 m (estimated)
From city: 23 miles NW of UVALDE, TX
Time zone: UTC -5 (UTC -6 during Standard Time)
Zip code: 78833

Airport Operations

Airport use: Private use. Permission required prior to landing
Activation date: 09/2015
Control tower: no
ARTCC: HOUSTON CENTER
FSS: SAN ANGELO FLIGHT SERVICE STATION
Attendance: UNATNDD
Segmented circle: no

Nearby radio navigation aids

VOR radial/distance  VOR name  Freq  Var
RSGr154/34.6ROCKSPRINGS VORTAC114.5510E
DLFr073/34.9LAUGHLIN VORTAC114.4007E

 
NDB name  Hdg/Dist  Freq  Var  ID
SPOFFORD033/25.135608EPFO .--. ..-. ---
UVALDE303/26.528107EUVA ..- ...- .-
LA FONDA RANCH051/30.726909EBRX -... .-. -..-
LA PRYOR328/34.722309ELKX .-.. -.- -..-
CHAPARROSA RANCH345/35.538505ECPZ -.-. .--. --..

Airport Services

Runway Information

Runway 17/35

Dimensions: 5800 x 70 ft. / 1768 x 21 m
Surface: asphalt
RUNWAY 17  RUNWAY 35
Traffic pattern: leftleft

Airport Ownership and Management from official FAA records

Ownership: Privately-owned
Owner: BRENT OXLEY
1946 PRIVATE ROAD 2485
UVLADE, TX 78801
Phone 817-677-9899
Manager: CHRISTOPHER TYSON
1946 PRIVATE ROAD 2485
UVALDE, TX 78801
Phone 830-333-9990

Additional Remarks

FOR CD CTC LAUGHLIN APCH AT 830-298-4350, WHEN APCH CLSD CTC HOUSTON ARTCC AT 281-230-5622.
FOR FLT FLWG CTC DEL RIO APP 127.775 M-F 0800-1700, HOUSTON CTR 134.950
PERMIT RQD, OXRANCHAIRPORT.COM FOR INSTRUCTIONS
AIRCRAFT WINGSPAN RESTRICTED TO 70 FT.

Instrument Procedures

There are no published instrument procedures at 01TX.

Some nearby airports with instrument procedures:

KUVA - Garner Field Airport (25 nm SE)
KECU - Edwards County Airport (29 nm N)
KDLF - Laughlin AFB Airport (35 nm W)
5T9 - Maverick County Memorial International Airport (42 nm SW)
KDRT - Del Rio International Airport (43 nm W)
 
Loc | Ops | Rwys | IFR | FBO | Links
Com | Nav | Svcs | Stats | Notes
Aerial photo
WARNING: Photo may not be current or correct
Aerial photo of 01TX (Ox Ranch Airport)
Photo by Nick Tyson
Taken in 2016

Do you have a better or more recent aerial photo of Ox Ranch Airport that you would like to share? If so, please send us your photo.

 
Airport distance calculator
Flying to Ox Ranch Airport? Find the distance to fly.

From to 01TX

Sunrise and sunset
Times for 29-May-2020
 Local
(UTC-5)
 Zulu
(UTC)
Morning civil twilight06:1611:16
Sunrise06:4211:42
Sunset20:3301:33
Evening civil twilight21:0002:00

Current date and time
Zulu (UTC)  30-May-2020 03:50:19
Local (UTC-5)  29-May-2020 22:50:19
 
METAR
KUVA 
25nm SE 
300335Z AUTO 05006KT 10SM 23/17 A3013 RMK AO2 T02250169
KECU 
29nm N 
300335Z AUTO 06004KT CLR 21/12 A3023 RMK AO2
KDLF 
35nm W 
300256Z AUTO 08007KT 10SM CLR 26/14 A3009 RMK AO2 SLP178 T02560144 52011 $
K5T9 
42nm SW 
300335Z AUTO 06005KT 10SM CLR 24/15 A3010 RMK A01
KDRT 
42nm W 
300253Z AUTO 08005KT 10SM CLR 28/14 A3008 RMK AO2 SLP169 T02830144 53009
TAF
KDLF 
35nm W 
291900Z 2919/3101 36006KT 9999 SCT050 SCT250 QNH3002INS BECMG 2921/2922 09009KT 9999 FEW060 SCT250 QNH2998INS BECMG 3003/3004 VRB06KT 9999 FEW070 QNH3004INS BECMG 3014/3015 15009KT 9999 SCT060 QNH3001INS BECMG 3100/3101 VRB06KT 9999 FEW250 QNH3003INS TX33/2921Z TN18/3011Z
KDRT 
42nm W 
291721Z 2918/3018 04006KT P6SM SCT040 FM292100 06008KT P6SM FEW250 FM301500 10006KT P6SM FEW250
NOTAMs
Click for the latest NOTAMs
NOTAMs are issued by the DoD/FAA and will open in a separate window not controlled by AirNav.

 

 
 

Would you like to see your business listed on this page?

 If your business provides an interesting product or service to pilots, flight crews, aircraft, or users of the Ox Ranch Airport, you should consider listing it here.  To start the listing process, click on the button below
 
Add a business
 

Other Pages about Ox Ranch Airport

Update a link
 
Copyright © AirNav, LLC. All rights reserved. Privacy Policy  Contact